sensor_id;sensor_type;location;lat;lon;timestamp;temperature;humidity
52267;DHT22;38223;50.940;4.034;2022-12-08T00:00:43;5.80;99.90
52267;DHT22;38223;50.940;4.034;2022-12-08T00:03:19;5.90;99.90
52267;DHT22;38223;50.940;4.034;2022-12-08T00:05:50;5.80;99.90
52267;DHT22;38223;50.940;4.034;2022-12-08T00:08:37;5.70;99.90
52267;DHT22;38223;50.940;4.034;2022-12-08T00:11:23;5.90;99.90
52267;DHT22;38223;50.940;4.034;2022-12-08T00:13:56;6.00;99.90
52267;DHT22;38223;50.940;4.034;2022-12-08T00:16:25;6.00;99.90
52267;DHT22;38223;50.940;4.034;2022-12-08T00:18:57;5.80;99.90
52267;DHT22;38223;50.940;4.034;2022-12-08T00:21:28;5.70;99.90
52267;DHT22;38223;50.940;4.034;2022-12-08T00:24:00;5.70;99.90
52267;DHT22;38223;50.940;4.034;2022-12-08T00:26:32;5.80;99.90
52267;DHT22;38223;50.940;4.034;2022-12-08T00:29:13;5.80;99.90
52267;DHT22;38223;50.940;4.034;2022-12-08T00:31:44;5.80;99.90
52267;DHT22;38223;50.940;4.034;2022-12-08T00:34:17;5.80;99.90
52267;DHT22;38223;50.940;4.034;2022-12-08T00:36:51;5.70;99.90
52267;DHT22;38223;50.940;4.034;2022-12-08T00:39:23;5.70;99.90
52267;DHT22;38223;50.940;4.034;2022-12-08T00:41:56;5.60;99.90
52267;DHT22;38223;50.940;4.034;2022-12-08T00:44:43;5.60;99.90
52267;DHT22;38223;50.940;4.034;2022-12-08T00:47:14;5.70;99.90
52267;DHT22;38223;50.940;4.034;2022-12-08T00:49:45;5.70;99.90
52267;DHT22;38223;50.940;4.034;2022-12-08T00:52:17;5.80;99.90
52267;DHT22;38223;50.940;4.034;2022-12-08T00:54:48;5.90;99.90
52267;DHT22;38223;50.940;4.034;2022-12-08T00:57:20;5.70;99.90
52267;DHT22;38223;50.940;4.034;2022-12-08T00:59:48;5.70;99.90
52267;DHT22;38223;50.940;4.034;2022-12-08T01:02:24;5.70;99.90
52267;DHT22;38223;50.940;4.034;2022-12-08T01:04:53;5.70;99.90
52267;DHT22;38223;50.940;4.034;2022-12-08T01:07:28;5.70;99.90
52267;DHT22;38223;50.940;4.034;2022-12-08T01:10:04;5.80;99.90
52267;DHT22;38223;50.940;4.034;2022-12-08T01:12:35;5.80;99.90
52267;DHT22;38223;50.940;4.034;2022-12-08T01:15:07;5.70;99.90
52267;DHT22;38223;50.940;4.034;2022-12-08T01:17:43;5.50;99.90
52267;DHT22;38223;50.940;4.034;2022-12-08T01:20:18;5.60;99.90
52267;DHT22;38223;50.940;4.034;2022-12-08T01:22:51;5.50;99.90
52267;DHT22;38223;50.940;4.034;2022-12-08T01:25:23;5.50;99.90
52267;DHT22;38223;50.940;4.034;2022-12-08T01:27:58;5.50;99.90
52267;DHT22;38223;50.940;4.034;2022-12-08T01:30:29;5.60;99.90
52267;DHT22;38223;50.940;4.034;2022-12-08T01:33:06;5.50;99.90
52267;DHT22;38223;50.940;4.034;2022-12-08T01:38:23;5.70;99.90
52267;DHT22;38223;50.940;4.034;2022-12-08T01:40:53;5.70;99.90
52267;DHT22;38223;50.940;4.034;2022-12-08T01:43:24;5.70;99.90
52267;DHT22;38223;50.940;4.034;2022-12-08T01:45:58;5.90;99.90
52267;DHT22;38223;50.940;4.034;2022-12-08T01:48:28;5.90;99.90
52267;DHT22;38223;50.940;4.034;2022-12-08T01:51:01;5.80;99.90
52267;DHT22;38223;50.940;4.034;2022-12-08T01:56:36;5.50;99.90
52267;DHT22;38223;50.940;4.034;2022-12-08T01:59:08;5.60;99.90
52267;DHT22;38223;50.940;4.034;2022-12-08T02:01:40;5.60;99.90
52267;DHT22;38223;50.940;4.034;2022-12-08T02:04:12;5.40;99.90
52267;DHT22;38223;50.940;4.034;2022-12-08T02:06:43;5.50;99.90
52267;DHT22;38223;50.940;4.034;2022-12-08T02:09:16;5.60;99.90
52267;DHT22;38223;50.940;4.034;2022-12-08T02:11:52;5.60;99.90
52267;DHT22;38223;50.940;4.034;2022-12-08T02:14:23;5.60;99.90
52267;DHT22;38223;50.940;4.034;2022-12-08T02:31:28;5.80;99.90
52267;DHT22;38223;50.940;4.034;2022-12-08T02:34:22;5.70;99.90
52267;DHT22;38223;50.940;4.034;2022-12-08T02:37:05;5.90;99.90
52267;DHT22;38223;50.940;4.034;2022-12-08T02:42:27;5.90;99.90
52267;DHT22;38223;50.940;4.034;2022-12-08T02:45:17;5.90;99.90
52267;DHT22;38223;50.940;4.034;2022-12-08T02:47:48;5.90;99.90
52267;DHT22;38223;50.940;4.034;2022-12-08T02:50:21;5.90;99.90
52267;DHT22;38223;50.940;4.034;2022-12-08T02:52:58;6.00;99.90
52267;DHT22;38223;50.940;4.034;2022-12-08T02:56:52;6.00;99.90
52267;DHT22;38223;50.940;4.034;2022-12-08T03:01:18;5.70;99.90
52267;DHT22;38223;50.940;4.034;2022-12-08T03:03:58;5.70;99.90
52267;DHT22;38223;50.940;4.034;2022-12-08T03:06:36;5.90;99.90
52267;DHT22;38223;50.940;4.034;2022-12-08T03:12:02;5.70;99.90
52267;DHT22;38223;50.940;4.034;2022-12-08T03:14:34;5.60;99.90
52267;DHT22;38223;50.940;4.034;2022-12-08T03:17:09;5.40;99.90
52267;DHT22;38223;50.940;4.034;2022-12-08T03:19:41;5.40;99.90
52267;DHT22;38223;50.940;4.034;2022-12-08T03:22:16;5.40;99.90
52267;DHT22;38223;50.940;4.034;2022-12-08T03:27:41;5.30;99.90
52267;DHT22;38223;50.940;4.034;2022-12-08T03:30:14;5.40;99.90
52267;DHT22;38223;50.940;4.034;2022-12-08T03:35:26;5.30;99.90
52267;DHT22;38223;50.940;4.034;2022-12-08T03:38:14;5.20;99.90
52267;DHT22;38223;50.940;4.034;2022-12-08T03:40:44;5.10;99.90
52267;DHT22;38223;50.940;4.034;2022-12-08T03:43:21;5.00;99.90
52267;DHT22;38223;50.940;4.034;2022-12-08T03:45:53;5.00;99.90
52267;DHT22;38223;50.940;4.034;2022-12-08T03:48:25;5.00;99.90
52267;DHT22;38223;50.940;4.034;2022-12-08T03:53:46;5.00;99.90
52267;DHT22;38223;50.940;4.034;2022-12-08T03:56:36;5.10;99.90
52267;DHT22;38223;50.940;4.034;2022-12-08T03:59:13;5.20;99.90
52267;DHT22;38223;50.940;4.034;2022-12-08T04:01:40;5.40;99.90
52267;DHT22;38223;50.940;4.034;2022-12-08T04:04:15;5.40;99.90
52267;DHT22;38223;50.940;4.034;2022-12-08T04:06:44;5.40;99.90
52267;DHT22;38223;50.940;4.034;2022-12-08T04:09:14;5.40;99.90
52267;DHT22;38223;50.940;4.034;2022-12-08T04:11:47;5.60;99.90
52267;DHT22;38223;50.940;4.034;2022-12-08T04:14:18;5.50;99.90
52267;DHT22;38223;50.940;4.034;2022-12-08T04:16:51;5.50;99.90
52267;DHT22;38223;50.940;4.034;2022-12-08T04:19:21;5.30;99.90
52267;DHT22;38223;50.940;4.034;2022-12-08T04:21:50;5.40;99.90
52267;DHT22;38223;50.940;4.034;2022-12-08T04:24:17;5.40;99.90
52267;DHT22;38223;50.940;4.034;2022-12-08T04:26:45;5.50;99.90
52267;DHT22;38223;50.940;4.034;2022-12-08T04:29:18;5.50;99.90
52267;DHT22;38223;50.940;4.034;2022-12-08T04:31:49;5.50;99.90
52267;DHT22;38223;50.940;4.034;2022-12-08T04:34:21;5.50;99.90
52267;DHT22;38223;50.940;4.034;2022-12-08T04:36:52;5.50;99.90
52267;DHT22;38223;50.940;4.034;2022-12-08T04:39:25;5.40;99.90
52267;DHT22;38223;50.940;4.034;2022-12-08T04:41:56;5.50;99.90
52267;DHT22;38223;50.940;4.034;2022-12-08T04:44:33;5.40;99.90
52267;DHT22;38223;50.940;4.034;2022-12-08T04:47:06;5.40;99.90
52267;DHT22;38223;50.940;4.034;2022-12-08T04:49:43;5.50;99.90
52267;DHT22;38223;50.940;4.034;2022-12-08T04:52:11;5.20;99.90
52267;DHT22;38223;50.940;4.034;2022-12-08T04:54:45;5.10;99.90
52267;DHT22;38223;50.940;4.034;2022-12-08T04:57:17;5.00;99.90
52267;DHT22;38223;50.940;4.034;2022-12-08T04:59:52;5.00;99.90
52267;DHT22;38223;50.940;4.034;2022-12-08T05:02:24;4.90;99.90
52267;DHT22;38223;50.940;4.034;2022-12-08T05:05:00;4.90;99.90
52267;DHT22;38223;50.940;4.034;2022-12-08T05:07:32;4.90;99.90
52267;DHT22;38223;50.940;4.034;2022-12-08T05:10:03;5.00;99.90
52267;DHT22;38223;50.940;4.034;2022-12-08T05:12:36;5.10;99.90
52267;DHT22;38223;50.940;4.034;2022-12-08T05:15:09;5.10;99.90
52267;DHT22;38223;50.940;4.034;2022-12-08T05:17:42;5.20;99.90
52267;DHT22;38223;50.940;4.034;2022-12-08T05:20:15;5.30;99.90
52267;DHT22;38223;50.940;4.034;2022-12-08T05:22:45;5.30;99.90
52267;DHT22;38223;50.940;4.034;2022-12-08T05:25:22;5.20;99.90
52267;DHT22;38223;50.940;4.034;2022-12-08T05:27:55;5.20;99.90
52267;DHT22;38223;50.940;4.034;2022-12-08T05:30:25;5.20;99.90
52267;DHT22;38223;50.940;4.034;2022-12-08T05:32:55;5.30;99.90
52267;DHT22;38223;50.940;4.034;2022-12-08T05:35:24;5.40;99.90
52267;DHT22;38223;50.940;4.034;2022-12-08T05:37:53;5.40;99.90
52267;DHT22;38223;50.940;4.034;2022-12-08T05:40:27;5.40;99.90
52267;DHT22;38223;50.940;4.034;2022-12-08T05:42:55;5.50;99.90
52267;DHT22;38223;50.940;4.034;2022-12-08T05:45:26;5.40;99.90
52267;DHT22;38223;50.940;4.034;2022-12-08T05:47:59;5.20;99.90
52267;DHT22;38223;50.940;4.034;2022-12-08T05:50:34;5.20;99.90
52267;DHT22;38223;50.940;4.034;2022-12-08T05:53:08;5.30;99.90
52267;DHT22;38223;50.940;4.034;2022-12-08T05:55:37;5.30;99.90
52267;DHT22;38223;50.940;4.034;2022-12-08T05:58:08;5.30;99.90
52267;DHT22;38223;50.940;4.034;2022-12-08T06:00:41;5.30;99.90
52267;DHT22;38223;50.940;4.034;2022-12-08T06:03:15;5.20;99.90
52267;DHT22;38223;50.940;4.034;2022-12-08T06:05:51;5.20;99.90
52267;DHT22;38223;50.940;4.034;2022-12-08T06:08:20;5.30;99.90
52267;DHT22;38223;50.940;4.034;2022-12-08T06:10:53;5.40;99.90
52267;DHT22;38223;50.940;4.034;2022-12-08T06:13:25;5.30;99.90
52267;DHT22;38223;50.940;4.034;2022-12-08T06:15:52;5.40;99.90
52267;DHT22;38223;50.940;4.034;2022-12-08T06:18:21;5.40;99.90
52267;DHT22;38223;50.940;4.034;2022-12-08T06:21:03;5.40;99.90
52267;DHT22;38223;50.940;4.034;2022-12-08T06:23:35;5.40;99.90
52267;DHT22;38223;50.940;4.034;2022-12-08T06:26:12;5.40;99.90
52267;DHT22;38223;50.940;4.034;2022-12-08T06:28:46;5.40;99.90
52267;DHT22;38223;50.940;4.034;2022-12-08T06:31:22;5.40;99.90
52267;DHT22;38223;50.940;4.034;2022-12-08T06:33:53;5.30;99.90
52267;DHT22;38223;50.940;4.034;2022-12-08T06:36:27;5.30;99.90
52267;DHT22;38223;50.940;4.034;2022-12-08T06:38:59;5.30;99.90
52267;DHT22;38223;50.940;4.034;2022-12-08T06:41:35;5.30;99.90
52267;DHT22;38223;50.940;4.034;2022-12-08T06:44:04;5.30;99.90
52267;DHT22;38223;50.940;4.034;2022-12-08T06:46:35;5.20;99.90
52267;DHT22;38223;50.940;4.034;2022-12-08T06:49:06;5.30;99.90
52267;DHT22;38223;50.940;4.034;2022-12-08T06:51:35;5.30;99.90
52267;DHT22;38223;50.940;4.034;2022-12-08T06:54:09;5.40;99.90
52267;DHT22;38223;50.940;4.034;2022-12-08T06:56:39;5.50;99.90
52267;DHT22;38223;50.940;4.034;2022-12-08T06:59:11;5.50;99.90
52267;DHT22;38223;50.940;4.034;2022-12-08T07:01:42;5.40;99.90
52267;DHT22;38223;50.940;4.034;2022-12-08T07:04:15;5.40;99.90
52267;DHT22;38223;50.940;4.034;2022-12-08T07:06:48;5.40;99.90
52267;DHT22;38223;50.940;4.034;2022-12-08T07:09:20;5.50;99.90
52267;DHT22;38223;50.940;4.034;2022-12-08T07:11:54;5.50;99.90
52267;DHT22;38223;50.940;4.034;2022-12-08T07:14:21;5.50;99.90
52267;DHT22;38223;50.940;4.034;2022-12-08T07:16:54;5.60;99.90
52267;DHT22;38223;50.940;4.034;2022-12-08T07:19:24;5.60;99.90
52267;DHT22;38223;50.940;4.034;2022-12-08T07:21:54;5.70;99.90
52267;DHT22;38223;50.940;4.034;2022-12-08T07:24:24;5.70;99.90
52267;DHT22;38223;50.940;4.034;2022-12-08T07:26:57;5.70;99.90
52267;DHT22;38223;50.940;4.034;2022-12-08T07:29:25;5.70;99.90
52267;DHT22;38223;50.940;4.034;2022-12-08T07:31:53;5.70;99.90
52267;DHT22;38223;50.940;4.034;2022-12-08T07:34:28;5.80;99.90
52267;DHT22;38223;50.940;4.034;2022-12-08T07:36:56;5.80;99.90
52267;DHT22;38223;50.940;4.034;2022-12-08T07:39:29;5.90;99.90
52267;DHT22;38223;50.940;4.034;2022-12-08T07:41:58;5.80;99.90
52267;DHT22;38223;50.940;4.034;2022-12-08T07:44:31;5.80;99.90
52267;DHT22;38223;50.940;4.034;2022-12-08T07:47:00;5.90;99.90
52267;DHT22;38223;50.940;4.034;2022-12-08T07:49:37;6.00;99.90
52267;DHT22;38223;50.940;4.034;2022-12-08T07:52:09;6.00;99.90
52267;DHT22;38223;50.940;4.034;2022-12-08T07:54:41;6.20;99.90
52267;DHT22;38223;50.940;4.034;2022-12-08T07:57:10;6.20;99.90
52267;DHT22;38223;50.940;4.034;2022-12-08T07:59:40;6.20;99.90
52267;DHT22;38223;50.940;4.034;2022-12-08T08:02:18;6.20;99.90
52267;DHT22;38223;50.940;4.034;2022-12-08T08:04:55;6.20;99.90
52267;DHT22;38223;50.940;4.034;2022-12-08T08:07:36;6.20;99.90
52267;DHT22;38223;50.940;4.034;2022-12-08T08:10:08;6.10;99.90
52267;DHT22;38223;50.940;4.034;2022-12-08T08:12:39;6.10;99.90
52267;DHT22;38223;50.940;4.034;2022-12-08T08:15:13;6.10;99.90
52267;DHT22;38223;50.940;4.034;2022-12-08T08:17:41;6.00;99.90
52267;DHT22;38223;50.940;4.034;2022-12-08T08:20:19;5.90;99.90
52267;DHT22;38223;50.940;4.034;2022-12-08T08:22:50;5.90;99.90
52267;DHT22;38223;50.940;4.034;2022-12-08T08:25:23;6.10;99.90
52267;DHT22;38223;50.940;4.034;2022-12-08T08:27:57;6.20;99.90
52267;DHT22;38223;50.940;4.034;2022-12-08T08:30:27;6.20;99.90
52267;DHT22;38223;50.940;4.034;2022-12-08T08:32:58;6.10;99.90
52267;DHT22;38223;50.940;4.034;2022-12-08T08:35:33;6.10;99.90
52267;DHT22;38223;50.940;4.034;2022-12-08T08:38:02;6.10;99.90
52267;DHT22;38223;50.940;4.034;2022-12-08T08:40:34;6.30;99.90
52267;DHT22;38223;50.940;4.034;2022-12-08T08:43:08;6.30;99.90
52267;DHT22;38223;50.940;4.034;2022-12-08T08:45:41;6.20;99.90
52267;DHT22;38223;50.940;4.034;2022-12-08T08:51:11;6.10;99.90
52267;DHT22;38223;50.940;4.034;2022-12-08T08:53:47;6.10;99.90
52267;DHT22;38223;50.940;4.034;2022-12-08T08:56:21;6.10;99.90
52267;DHT22;38223;50.940;4.034;2022-12-08T08:58:53;6.20;99.90
52267;DHT22;38223;50.940;4.034;2022-12-08T09:01:27;6.20;99.90
52267;DHT22;38223;50.940;4.034;2022-12-08T09:03:58;6.00;99.90
52267;DHT22;38223;50.940;4.034;2022-12-08T09:06:32;5.80;99.90
52267;DHT22;38223;50.940;4.034;2022-12-08T09:09:01;5.70;99.90
52267;DHT22;38223;50.940;4.034;2022-12-08T09:11:32;5.60;99.90
52267;DHT22;38223;50.940;4.034;2022-12-08T09:14:05;5.70;99.90
52267;DHT22;38223;50.940;4.034;2022-12-08T09:16:34;5.80;99.90
52267;DHT22;38223;50.940;4.034;2022-12-08T09:19:06;5.80;99.90
52267;DHT22;38223;50.940;4.034;2022-12-08T09:21:40;5.90;99.90
52267;DHT22;38223;50.940;4.034;2022-12-08T09:24:09;5.80;99.90
52267;DHT22;38223;50.940;4.034;2022-12-08T09:26:39;5.70;99.90
52267;DHT22;38223;50.940;4.034;2022-12-08T09:29:09;5.80;99.90
52267;DHT22;38223;50.940;4.034;2022-12-08T09:31:42;5.60;99.90
52267;DHT22;38223;50.940;4.034;2022-12-08T09:34:14;5.70;99.90
52267;DHT22;38223;50.940;4.034;2022-12-08T09:36:44;5.60;99.90
52267;DHT22;38223;50.940;4.034;2022-12-08T09:39:15;5.70;99.90
52267;DHT22;38223;50.940;4.034;2022-12-08T09:41:49;5.70;99.90
52267;DHT22;38223;50.940;4.034;2022-12-08T09:45:04;5.70;99.90
52267;DHT22;38223;50.940;4.034;2022-12-08T09:50:34;5.70;99.90
52267;DHT22;38223;50.940;4.034;2022-12-08T09:53:12;5.70;99.90
52267;DHT22;38223;50.940;4.034;2022-12-08T10:01:17;5.90;99.90
52267;DHT22;38223;50.940;4.034;2022-12-08T10:03:55;5.70;99.90
52267;DHT22;38223;50.940;4.034;2022-12-08T10:06:40;5.70;99.90
52267;DHT22;38223;50.940;4.034;2022-12-08T10:12:09;5.90;99.90
52267;DHT22;38223;50.940;4.034;2022-12-08T10:14:54;6.10;99.90
52267;DHT22;38223;50.940;4.034;2022-12-08T10:17:39;6.10;99.90
52267;DHT22;38223;50.940;4.034;2022-12-08T10:20:22;6.20;99.90
52267;DHT22;38223;50.940;4.034;2022-12-08T10:22:56;6.20;99.90
52267;DHT22;38223;50.940;4.034;2022-12-08T10:25:35;6.30;99.90
52267;DHT22;38223;50.940;4.034;2022-12-08T10:28:08;6.40;99.90
52267;DHT22;38223;50.940;4.034;2022-12-08T10:30:37;6.40;99.90
52267;DHT22;38223;50.940;4.034;2022-12-08T10:33:19;6.60;99.90
52267;DHT22;38223;50.940;4.034;2022-12-08T10:35:46;6.50;99.90
52267;DHT22;38223;50.940;4.034;2022-12-08T10:38:24;6.60;99.90
52267;DHT22;38223;50.940;4.034;2022-12-08T10:40:49;6.80;99.90
52267;DHT22;38223;50.940;4.034;2022-12-08T10:43:24;6.80;99.90
52267;DHT22;38223;50.940;4.034;2022-12-08T10:45:54;6.90;99.90
52267;DHT22;38223;50.940;4.034;2022-12-08T10:48:28;6.90;99.90
52267;DHT22;38223;50.940;4.034;2022-12-08T10:51:08;6.90;99.90
52267;DHT22;38223;50.940;4.034;2022-12-08T10:53:43;6.90;99.90
52267;DHT22;38223;50.940;4.034;2022-12-08T10:56:16;6.90;99.90
52267;DHT22;38223;50.940;4.034;2022-12-08T10:58:49;6.80;99.90
52267;DHT22;38223;50.940;4.034;2022-12-08T11:01:24;6.50;99.90
52267;DHT22;38223;50.940;4.034;2022-12-08T11:04:06;6.30;99.90
52267;DHT22;38223;50.940;4.034;2022-12-08T11:06:35;6.30;99.90
52267;DHT22;38223;50.940;4.034;2022-12-08T11:11:57;6.60;99.90
52267;DHT22;38223;50.940;4.034;2022-12-08T11:14:46;6.60;99.90
52267;DHT22;38223;50.940;4.034;2022-12-08T11:17:06;6.70;99.90
52267;DHT22;38223;50.940;4.034;2022-12-08T11:20:03;6.70;99.90
52267;DHT22;38223;50.940;4.034;2022-12-08T11:22:40;6.80;99.90
52267;DHT22;38223;50.940;4.034;2022-12-08T11:25:28;6.80;99.90
52267;DHT22;38223;50.940;4.034;2022-12-08T11:27:58;6.90;99.90
52267;DHT22;38223;50.940;4.034;2022-12-08T11:30:35;7.10;99.90
52267;DHT22;38223;50.940;4.034;2022-12-08T11:33:18;7.10;99.90
52267;DHT22;38223;50.940;4.034;2022-12-08T11:36:22;7.10;99.90
52267;DHT22;38223;50.940;4.034;2022-12-08T11:38:27;7.10;99.90
52267;DHT22;38223;50.940;4.034;2022-12-08T11:41:06;7.10;99.90
52267;DHT22;38223;50.940;4.034;2022-12-08T11:43:43;7.00;99.90
52267;DHT22;38223;50.940;4.034;2022-12-08T11:46:33;7.00;99.90
52267;DHT22;38223;50.940;4.034;2022-12-08T11:49:05;7.10;99.90
52267;DHT22;38223;50.940;4.034;2022-12-08T11:54:35;7.30;99.90
52267;DHT22;38223;50.940;4.034;2022-12-08T11:57:07;7.10;99.90
52267;DHT22;38223;50.940;4.034;2022-12-08T11:59:41;7.20;99.90
52267;DHT22;38223;50.940;4.034;2022-12-08T12:02:19;7.10;99.90
52267;DHT22;38223;50.940;4.034;2022-12-08T12:05:14;6.90;99.90
52267;DHT22;38223;50.940;4.034;2022-12-08T12:10:46;6.70;99.90
52267;DHT22;38223;50.940;4.034;2022-12-08T12:13:24;6.70;99.90
52267;DHT22;38223;50.940;4.034;2022-12-08T12:18:43;6.80;99.90
52267;DHT22;38223;50.940;4.034;2022-12-08T12:21:34;6.80;99.90
52267;DHT22;38223;50.940;4.034;2022-12-08T12:24:07;6.70;99.90
52267;DHT22;38223;50.940;4.034;2022-12-08T12:29:28;6.60;99.90
52267;DHT22;38223;50.940;4.034;2022-12-08T12:32:02;6.80;99.90
52267;DHT22;38223;50.940;4.034;2022-12-08T12:34:34;6.80;99.90
52267;DHT22;38223;50.940;4.034;2022-12-08T12:37:17;6.70;99.90
52267;DHT22;38223;50.940;4.034;2022-12-08T12:40:00;6.70;99.90
52267;DHT22;38223;50.940;4.034;2022-12-08T12:42:47;6.70;99.90
52267;DHT22;38223;50.940;4.034;2022-12-08T12:47:51;6.60;99.90
52267;DHT22;38223;50.940;4.034;2022-12-08T12:56:00;6.90;99.90
52267;DHT22;38223;50.940;4.034;2022-12-08T12:58:35;6.80;99.90
52267;DHT22;38223;50.940;4.034;2022-12-08T13:04:04;7.00;99.90
52267;DHT22;38223;50.940;4.034;2022-12-08T13:06:38;7.10;99.90
52267;DHT22;38223;50.940;4.034;2022-12-08T13:09:21;7.00;99.90
52267;DHT22;38223;50.940;4.034;2022-12-08T13:11:52;6.90;99.90
52267;DHT22;38223;50.940;4.034;2022-12-08T13:14:29;6.60;99.90
52267;DHT22;38223;50.940;4.034;2022-12-08T13:17:03;6.60;99.90
52267;DHT22;38223;50.940;4.034;2022-12-08T13:19:35;6.60;99.90
52267;DHT22;38223;50.940;4.034;2022-12-08T13:28:23;7.00;99.90
52267;DHT22;38223;50.940;4.034;2022-12-08T13:31:02;6.90;99.90
52267;DHT22;38223;50.940;4.034;2022-12-08T13:33:39;6.40;99.90
52267;DHT22;38223;50.940;4.034;2022-12-08T13:36:34;6.00;99.90
52267;DHT22;38223;50.940;4.034;2022-12-08T13:39:04;5.90;99.90
52267;DHT22;38223;50.940;4.034;2022-12-08T13:41:42;5.70;99.90
52267;DHT22;38223;50.940;4.034;2022-12-08T13:44:23;5.50;99.90
52267;DHT22;38223;50.940;4.034;2022-12-08T13:46:55;5.50;99.90
52267;DHT22;38223;50.940;4.034;2022-12-08T13:49:36;5.60;99.90
52267;DHT22;38223;50.940;4.034;2022-12-08T13:52:14;5.70;99.90
52267;DHT22;38223;50.940;4.034;2022-12-08T13:54:41;5.70;99.90
52267;DHT22;38223;50.940;4.034;2022-12-08T13:57:32;5.60;99.90
52267;DHT22;38223;50.940;4.034;2022-12-08T14:00:18;5.90;99.90
52267;DHT22;38223;50.940;4.034;2022-12-08T14:02:45;5.90;99.90
52267;DHT22;38223;50.940;4.034;2022-12-08T14:05:21;5.90;99.90
52267;DHT22;38223;50.940;4.034;2022-12-08T14:07:57;6.10;99.90
52267;DHT22;38223;50.940;4.034;2022-12-08T14:10:31;6.10;99.90
52267;DHT22;38223;50.940;4.034;2022-12-08T14:13:09;6.00;99.90
52267;DHT22;38223;50.940;4.034;2022-12-08T14:15:44;6.00;99.90
52267;DHT22;38223;50.940;4.034;2022-12-08T14:18:28;5.90;99.90
52267;DHT22;38223;50.940;4.034;2022-12-08T14:21:10;5.90;99.90
52267;DHT22;38223;50.940;4.034;2022-12-08T14:23:42;5.70;99.90
52267;DHT22;38223;50.940;4.034;2022-12-08T14:26:14;5.60;99.90
52267;DHT22;38223;50.940;4.034;2022-12-08T14:28:54;5.50;99.90
52267;DHT22;38223;50.940;4.034;2022-12-08T14:31:31;5.50;99.90
52267;DHT22;38223;50.940;4.034;2022-12-08T14:34:03;5.40;99.90
52267;DHT22;38223;50.940;4.034;2022-12-08T14:36:36;5.40;99.90
52267;DHT22;38223;50.940;4.034;2022-12-08T14:39:04;5.40;99.90
52267;DHT22;38223;50.940;4.034;2022-12-08T14:41:39;5.40;99.90
52267;DHT22;38223;50.940;4.034;2022-12-08T14:44:42;5.40;99.90
52267;DHT22;38223;50.940;4.034;2022-12-08T14:47:17;5.50;99.90
52267;DHT22;38223;50.940;4.034;2022-12-08T14:49:47;5.50;99.90
52267;DHT22;38223;50.940;4.034;2022-12-08T14:52:23;5.60;99.90
52267;DHT22;38223;50.940;4.034;2022-12-08T14:54:54;5.70;99.90
52267;DHT22;38223;50.940;4.034;2022-12-08T14:57:29;5.60;99.90
52267;DHT22;38223;50.940;4.034;2022-12-08T15:00:06;5.50;99.90
52267;DHT22;38223;50.940;4.034;2022-12-08T15:02:43;5.70;99.90
52267;DHT22;38223;50.940;4.034;2022-12-08T15:05:17;5.70;99.90
52267;DHT22;38223;50.940;4.034;2022-12-08T15:07:55;5.80;99.90
52267;DHT22;38223;50.940;4.034;2022-12-08T15:10:34;5.70;99.90
52267;DHT22;38223;50.940;4.034;2022-12-08T15:15:56;5.60;99.90
52267;DHT22;38223;50.940;4.034;2022-12-08T15:18:36;5.70;99.90
52267;DHT22;38223;50.940;4.034;2022-12-08T15:21:14;5.60;99.90
52267;DHT22;38223;50.940;4.034;2022-12-08T15:23:49;5.50;99.90
52267;DHT22;38223;50.940;4.034;2022-12-08T15:26:25;5.40;99.90
52267;DHT22;38223;50.940;4.034;2022-12-08T15:29:08;5.40;99.90
52267;DHT22;38223;50.940;4.034;2022-12-08T15:31:37;5.40;99.90
52267;DHT22;38223;50.940;4.034;2022-12-08T15:34:11;5.40;99.90
52267;DHT22;38223;50.940;4.034;2022-12-08T15:36:42;5.70;99.90
52267;DHT22;38223;50.940;4.034;2022-12-08T15:39:36;5.80;99.90
52267;DHT22;38223;50.940;4.034;2022-12-08T15:42:09;5.80;99.90
52267;DHT22;38223;50.940;4.034;2022-12-08T15:44:42;5.80;99.90
52267;DHT22;38223;50.940;4.034;2022-12-08T15:47:17;5.70;99.90
52267;DHT22;38223;50.940;4.034;2022-12-08T15:49:49;5.60;99.90
52267;DHT22;38223;50.940;4.034;2022-12-08T15:52:22;5.80;99.90
52267;DHT22;38223;50.940;4.034;2022-12-08T15:54:54;5.80;99.90
52267;DHT22;38223;50.940;4.034;2022-12-08T15:57:25;5.80;99.90
52267;DHT22;38223;50.940;4.034;2022-12-08T16:00:02;5.80;99.90
52267;DHT22;38223;50.940;4.034;2022-12-08T16:02:32;5.90;99.90
52267;DHT22;38223;50.940;4.034;2022-12-08T16:04:59;6.00;99.90
52267;DHT22;38223;50.940;4.034;2022-12-08T16:07:32;6.00;99.90
52267;DHT22;38223;50.940;4.034;2022-12-08T16:10:03;5.90;99.90
52267;DHT22;38223;50.940;4.034;2022-12-08T16:12:36;6.00;99.90
52267;DHT22;38223;50.940;4.034;2022-12-08T16:15:21;6.00;99.90
52267;DHT22;38223;50.940;4.034;2022-12-08T16:17:49;6.00;99.90
52267;DHT22;38223;50.940;4.034;2022-12-08T16:20:20;6.00;99.90
52267;DHT22;38223;50.940;4.034;2022-12-08T16:22:54;6.10;99.90
52267;DHT22;38223;50.940;4.034;2022-12-08T16:25:27;6.20;99.90
52267;DHT22;38223;50.940;4.034;2022-12-08T16:27:58;6.30;99.90
52267;DHT22;38223;50.940;4.034;2022-12-08T16:30:29;6.30;99.90
52267;DHT22;38223;50.940;4.034;2022-12-08T16:33:05;6.20;99.90
52267;DHT22;38223;50.940;4.034;2022-12-08T16:35:37;6.00;99.90
52267;DHT22;38223;50.940;4.034;2022-12-08T16:38:10;5.90;99.90
52267;DHT22;38223;50.940;4.034;2022-12-08T16:40:50;5.80;99.90
52267;DHT22;38223;50.940;4.034;2022-12-08T16:43:33;5.80;99.90
52267;DHT22;38223;50.940;4.034;2022-12-08T16:46:15;5.70;99.90
52267;DHT22;38223;50.940;4.034;2022-12-08T16:48:40;5.80;99.90
52267;DHT22;38223;50.940;4.034;2022-12-08T16:51:17;5.90;99.90
52267;DHT22;38223;50.940;4.034;2022-12-08T16:53:50;5.70;99.90
52267;DHT22;38223;50.940;4.034;2022-12-08T16:56:21;5.60;99.90
52267;DHT22;38223;50.940;4.034;2022-12-08T16:58:56;5.60;99.90
52267;DHT22;38223;50.940;4.034;2022-12-08T17:01:27;5.50;99.90
52267;DHT22;38223;50.940;4.034;2022-12-08T17:03:56;5.50;99.90
52267;DHT22;38223;50.940;4.034;2022-12-08T17:06:28;5.50;99.90
52267;DHT22;38223;50.940;4.034;2022-12-08T17:09:02;5.50;99.90
52267;DHT22;38223;50.940;4.034;2022-12-08T17:11:32;5.60;99.90
52267;DHT22;38223;50.940;4.034;2022-12-08T17:14:00;5.50;99.90
52267;DHT22;38223;50.940;4.034;2022-12-08T17:16:27;5.50;99.90
52267;DHT22;38223;50.940;4.034;2022-12-08T17:18:57;5.70;99.90
52267;DHT22;38223;50.940;4.034;2022-12-08T17:21:32;5.60;99.90
52267;DHT22;38223;50.940;4.034;2022-12-08T17:24:05;5.50;99.90
52267;DHT22;38223;50.940;4.034;2022-12-08T17:26:40;5.50;99.90
52267;DHT22;38223;50.940;4.034;2022-12-08T17:29:13;5.30;99.90
52267;DHT22;38223;50.940;4.034;2022-12-08T17:31:44;5.40;99.90
52267;DHT22;38223;50.940;4.034;2022-12-08T17:34:16;5.30;99.90
52267;DHT22;38223;50.940;4.034;2022-12-08T17:36:46;5.20;99.90
52267;DHT22;38223;50.940;4.034;2022-12-08T17:39:15;5.20;99.90
52267;DHT22;38223;50.940;4.034;2022-12-08T17:42:08;5.20;99.90
52267;DHT22;38223;50.940;4.034;2022-12-08T17:44:37;5.20;99.90
52267;DHT22;38223;50.940;4.034;2022-12-08T17:47:09;5.20;99.90
52267;DHT22;38223;50.940;4.034;2022-12-08T17:49:40;5.20;99.90
52267;DHT22;38223;50.940;4.034;2022-12-08T17:52:16;5.10;99.90
52267;DHT22;38223;50.940;4.034;2022-12-08T17:54:43;5.10;99.90